Time;durP1;ratioP1;P1;durP2;ratioP2;P2;SDS_P1;SDS_P2;PMS_P1;PMS_P2;Temp;Humidity;BMP_temperature;BMP_pressure;BME280_temperature;BME280_humidity;BME280_pressure;Samples;Min_cycle;Max_cycle;Signal;HPM_P1;HPM_P2
2022/04/23 00:00:56;;;;;;;18.10;9.50;;;;;;;;;;5053899;28;20024;-82
2022/04/23 00:03:21;;;;;;;21.70;9.68;;;;;;;;;;5053875;28;20091;-81
2022/04/23 00:05:47;;;;;;;17.50;8.05;;;;;;;;;;5037389;28;20073;-81
2022/04/23 00:08:12;;;;;;;18.80;9.13;;;;;;;;;;5055177;28;20032;-81
2022/04/23 00:10:38;;;;;;;16.08;7.13;;;;;;;;;;5055305;28;20051;-81
2022/04/23 00:13:04;;;;;;;17.13;7.40;;;;;;;;;;5037291;28;20480;-80
2022/04/23 00:15:37;;;;;;;14.88;6.93;;;;;;;;;;5053806;28;20036;-82
2022/04/23 00:18:14;;;;;;;14.18;7.88;;;;;;;;;;5049250;28;20033;-80
2022/04/23 00:20:40;;;;;;;18.98;7.53;;;;;;;;;;5054168;28;20036;-80
2022/04/23 00:23:06;;;;;;;13.98;7.20;;;;;;;;;;5036682;28;20040;-82
2022/04/23 00:25:32;;;;;;;13.75;7.03;;;;;;;;;;5037095;28;20029;-79
2022/04/23 00:27:58;;;;;;;16.50;6.88;;;;;;;;;;5037311;28;20037;-78
2022/04/23 00:30:23;;;;;;;14.30;6.75;;;;;;;;;;5036978;28;20036;-78
2022/04/23 00:32:49;;;;;;;15.50;6.72;;;;;;;;;;5055165;28;20032;-81
2022/04/23 00:35:15;;;;;;;12.05;6.10;;;;;;;;;;5036788;28;20119;-80
2022/04/23 00:37:41;;;;;;;12.27;5.97;;;;;;;;;;5045300;28;20037;-80
2022/04/23 00:40:08;;;;;;;12.95;5.50;;;;;;;;;;5057163;28;20041;-81
2022/04/23 00:42:53;;;;;;;8.93;5.15;;;;;;;;;;5054403;28;20037;-80
2022/04/23 00:45:22;;;;;;;12.90;5.13;;;;;;;;;;5036901;28;20039;-81
2022/04/23 00:47:48;;;;;;;11.55;5.45;;;;;;;;;;5036741;28;20025;-80
2022/04/23 00:50:14;;;;;;;12.90;5.05;;;;;;;;;;5052911;28;20128;-79
2022/04/23 00:52:39;;;;;;;15.32;5.60;;;;;;;;;;5053211;28;20082;-80
2022/04/23 00:55:06;;;;;;;8.60;5.57;;;;;;;;;;5020343;28;20029;-80
2022/04/23 00:57:32;;;;;;;7.97;4.80;;;;;;;;;;5053265;28;20413;-79
2022/04/23 00:59:57;;;;;;;8.32;5.30;;;;;;;;;;5061276;28;20131;-81
2022/04/23 01:02:23;;;;;;;11.60;4.70;;;;;;;;;;5021680;28;20064;-80
2022/04/23 01:04:48;;;;;;;8.05;4.60;;;;;;;;;;5053743;28;20052;-80
2022/04/23 01:07:14;;;;;;;5.45;4.03;;;;;;;;;;5036625;28;20040;-80
2022/04/23 01:09:44;;;;;;;7.20;4.05;;;;;;;;;;5036282;28;20435;-81
2022/04/23 01:12:10;;;;;;;5.90;3.22;;;;;;;;;;5021155;28;20044;-80
2022/04/23 01:14:58;;;;;;;6.60;3.47;;;;;;;;;;5019693;28;20021;-80
2022/04/23 01:17:23;;;;;;;4.90;3.10;;;;;;;;;;5054039;28;20035;-81
2022/04/23 01:19:49;;;;;;;6.00;3.08;;;;;;;;;;5049874;28;20123;-79
2022/04/23 01:22:15;;;;;;;5.65;2.83;;;;;;;;;;5054255;28;20071;-80
2022/04/23 01:24:41;;;;;;;8.88;3.63;;;;;;;;;;5019830;28;20025;-80
2022/04/23 01:27:07;;;;;;;8.65;3.40;;;;;;;;;;5019764;28;20043;-80
2022/04/23 01:29:34;;;;;;;9.13;4.07;;;;;;;;;;5036290;28;20036;-80
2022/04/23 01:32:04;;;;;;;6.22;3.60;;;;;;;;;;5036408;28;20074;-79
2022/04/23 01:34:29;;;;;;;9.70;3.95;;;;;;;;;;5036064;28;20048;-80
2022/04/23 01:36:55;;;;;;;6.25;3.72;;;;;;;;;;5036128;28;20063;-80
2022/04/23 01:39:20;;;;;;;6.32;4.05;;;;;;;;;;5022870;28;20029;-80
2022/04/23 01:41:47;;;;;;;7.70;3.95;;;;;;;;;;5026744;28;20087;-79
2022/04/23 01:44:13;;;;;;;6.78;3.70;;;;;;;;;;5019911;28;20112;-80
2022/04/23 01:46:38;;;;;;;8.20;4.03;;;;;;;;;;5036040;28;20116;-80
2022/04/23 01:49:04;;;;;;;7.40;3.88;;;;;;;;;;5019413;28;20108;-80
2022/04/23 01:51:29;;;;;;;5.82;3.42;;;;;;;;;;5003439;28;20040;-80
2022/04/23 01:53:54;;;;;;;8.00;3.90;;;;;;;;;;5035869;28;20091;-80
2022/04/23 01:56:20;;;;;;;7.28;4.00;;;;;;;;;;5053689;28;20025;-80
2022/04/23 01:58:46;;;;;;;10.35;3.60;;;;;;;;;;5035702;28;20116;-80
2022/04/23 02:01:11;;;;;;;7.45;3.70;;;;;;;;;;5044895;28;20079;-79
2022/04/23 02:03:36;;;;;;;5.18;3.30;;;;;;;;;;5053229;28;20036;-80
2022/04/23 02:06:02;;;;;;;6.82;4.13;;;;;;;;;;5019341;28;20458;-80
2022/04/23 02:08:28;;;;;;;7.78;3.63;;;;;;;;;;5035770;28;20048;-80
2022/04/23 02:10:54;;;;;;;5.57;3.58;;;;;;;;;;5035718;28;20526;-80
2022/04/23 02:13:19;;;;;;;10.52;4.30;;;;;;;;;;5019771;28;20028;-80
2022/04/23 02:15:45;;;;;;;7.07;4.07;;;;;;;;;;5035830;28;20358;-80
2022/04/23 02:18:11;;;;;;;7.90;4.13;;;;;;;;;;5053411;28;20060;-80
2022/04/23 02:20:36;;;;;;;8.63;3.55;;;;;;;;;;5019872;28;20049;-80
2022/04/23 02:23:03;;;;;;;9.30;3.60;;;;;;;;;;5060074;28;20132;-80
2022/04/23 02:25:28;;;;;;;5.82;4.00;;;;;;;;;;5053561;28;20508;-80
2022/04/23 02:27:53;;;;;;;5.78;4.10;;;;;;;;;;5056981;28;20025;-80
2022/04/23 02:30:20;;;;;;;6.43;4.10;;;;;;;;;;5022738;28;20060;-80
2022/04/23 02:32:46;;;;;;;6.30;4.20;;;;;;;;;;5022420;28;20056;-80
2022/04/23 02:35:12;;;;;;;9.82;4.90;;;;;;;;;;5023007;28;20033;-80
2022/04/23 02:37:37;;;;;;;9.05;5.00;;;;;;;;;;5022642;28;20339;-80
2022/04/23 02:40:07;;;;;;;9.40;5.47;;;;;;;;;;5056753;28;20044;-79
2022/04/23 02:42:39;;;;;;;9.70;5.10;;;;;;;;;;5011299;28;20037;-79
2022/04/23 02:45:15;;;;;;;10.68;5.03;;;;;;;;;;5057057;28;20347;-79
2022/04/23 02:47:50;;;;;;;10.30;5.20;;;;;;;;;;5038563;28;20075;-80
2022/04/23 02:50:32;;;;;;;17.63;5.50;;;;;;;;;;5006661;28;20452;-80
2022/04/23 02:52:58;;;;;;;14.35;7.45;;;;;;;;;;5038632;28;20130;-80
2022/04/23 02:55:24;;;;;;;12.57;6.38;;;;;;;;;;5038838;28;20466;-80
2022/04/23 02:57:50;;;;;;;10.60;6.13;;;;;;;;;;5022240;28;20060;-80
2022/04/23 03:00:16;;;;;;;12.25;6.30;;;;;;;;;;5038715;28;20067;-80
2022/04/23 03:02:42;;;;;;;9.73;5.53;;;;;;;;;;5022522;28;20047;-80
2022/04/23 03:05:11;;;;;;;12.30;6.25;;;;;;;;;;5055701;28;20115;-80
2022/04/23 03:07:36;;;;;;;9.68;5.95;;;;;;;;;;5039172;28;20028;-80
2022/04/23 03:10:03;;;;;;;16.50;7.75;;;;;;;;;;5038545;28;20021;-80
2022/04/23 03:12:29;;;;;;;15.20;7.85;;;;;;;;;;5054964;28;20442;-80
2022/04/23 03:14:54;;;;;;;17.17;7.88;;;;;;;;;;5055068;28;20021;-79
2022/04/23 03:17:20;;;;;;;14.10;7.90;;;;;;;;;;5054630;28;20044;-80
2022/04/23 03:19:46;;;;;;;15.68;9.02;;;;;;;;;;5038305;28;20052;-80
2022/04/23 03:22:14;;;;;;;15.57;9.38;;;;;;;;;;5038561;28;20063;-79
2022/04/23 03:24:39;;;;;;;15.35;9.05;;;;;;;;;;5065694;28;20082;-80
2022/04/23 03:27:06;;;;;;;16.85;8.90;;;;;;;;;;5054697;28;20033;-80
2022/04/23 03:29:32;;;;;;;23.05;9.30;;;;;;;;;;5054786;28;20041;-81
2022/04/23 03:31:58;;;;;;;15.60;8.55;;;;;;;;;;5054832;28;20029;-79
2022/04/23 03:34:24;;;;;;;15.23;8.45;;;;;;;;;;5054761;28;20036;-79
2022/04/23 03:36:49;;;;;;;24.15;8.73;;;;;;;;;;5037752;28;20037;-80
2022/04/23 03:39:15;;;;;;;16.23;8.32;;;;;;;;;;5055719;28;20040;-80
2022/04/23 03:41:40;;;;;;;12.90;7.75;;;;;;;;;;5037776;28;20451;-79
2022/04/23 03:44:06;;;;;;;17.85;7.88;;;;;;;;;;5043406;28;20041;-80
2022/04/23 03:46:31;;;;;;;14.05;7.60;;;;;;;;;;5059440;28;20033;-80
2022/04/23 03:48:58;;;;;;;12.50;7.85;;;;;;;;;;5054343;28;20031;-80
2022/04/23 03:51:23;;;;;;;16.25;8.40;;;;;;;;;;5054315;28;20037;-80
2022/04/23 03:53:49;;;;;;;15.25;9.57;;;;;;;;;;5037558;28;20040;-80
2022/04/23 03:56:15;;;;;;;19.25;12.57;;;;;;;;;;5054810;28;20060;-79
2022/04/23 03:58:41;;;;;;;22.48;10.00;;;;;;;;;;5054119;28;20439;-80
2022/04/23 04:01:07;;;;;;;20.80;10.38;;;;;;;;;;5056604;28;20032;-79
2022/04/23 04:03:32;;;;;;;16.73;9.27;;;;;;;;;;5057101;28;20078;-80
2022/04/23 04:05:58;;;;;;;16.75;8.93;;;;;;;;;;5063472;28;20029;-78
2022/04/23 04:08:23;;;;;;;15.55;7.78;;;;;;;;;;5043650;28;20440;-80
2022/04/23 04:10:49;;;;;;;17.33;8.98;;;;;;;;;;5073028;28;20032;-79
2022/04/23 04:13:14;;;;;;;16.88;8.88;;;;;;;;;;5056797;28;20095;-79
2022/04/23 04:15:41;;;;;;;13.82;8.77;;;;;;;;;;5054127;28;20028;-79
2022/04/23 04:18:08;;;;;;;20.88;8.68;;;;;;;;;;5055476;28;20020;-79
2022/04/23 04:20:34;;;;;;;14.15;8.65;;;;;;;;;;5068202;28;20025;-80
2022/04/23 04:23:00;;;;;;;18.13;7.43;;;;;;;;;;5037179;28;20094;-80
2022/04/23 04:25:25;;;;;;;13.30;7.95;;;;;;;;;;5054598;28;20053;-80
2022/04/23 04:27:51;;;;;;;15.70;8.00;;;;;;;;;;5028966;28;20036;-80
2022/04/23 04:30:16;;;;;;;14.13;7.45;;;;;;;;;;5036984;28;20091;-80
2022/04/23 04:32:42;;;;;;;13.95;6.80;;;;;;;;;;5054571;28;20028;-79
2022/04/23 04:35:09;;;;;;;11.38;6.38;;;;;;;;;;5053496;28;20425;-79
2022/04/23 04:37:34;;;;;;;11.07;6.85;;;;;;;;;;5054545;28;20060;-79
2022/04/23 04:40:00;;;;;;;14.07;7.03;;;;;;;;;;5053442;28;20071;-79
2022/04/23 04:42:26;;;;;;;13.30;7.03;;;;;;;;;;5053183;28;20037;-79
2022/04/23 04:44:52;;;;;;;15.65;7.25;;;;;;;;;;5036873;28;20128;-78
2022/04/23 04:47:18;;;;;;;19.30;7.32;;;;;;;;;;5057538;28;20065;-79
2022/04/23 04:49:43;;;;;;;16.67;7.45;;;;;;;;;;5054074;28;20091;-78
2022/04/23 04:52:09;;;;;;;13.77;7.40;;;;;;;;;;5054606;28;20041;-79
2022/04/23 04:54:34;;;;;;;14.65;8.25;;;;;;;;;;5053096;28;20029;-79
2022/04/23 04:57:02;;;;;;;15.68;7.97;;;;;;;;;;5036409;28;20025;-79
2022/04/23 04:59:28;;;;;;;15.55;7.95;;;;;;;;;;5054586;28;20029;-79
2022/04/23 05:01:54;;;;;;;17.13;7.53;;;;;;;;;;5054186;28;20116;-79
2022/04/23 05:04:19;;;;;;;15.70;8.27;;;;;;;;;;5036310;28;20130;-79
2022/04/23 05:06:45;;;;;;;21.60;8.85;;;;;;;;;;5053092;28;20029;-79
2022/04/23 05:09:10;;;;;;;17.35;8.80;;;;;;;;;;5045539;28;20466;-79
2022/04/23 05:11:36;;;;;;;22.08;9.30;;;;;;;;;;5052724;28;20029;-79
2022/04/23 05:14:02;;;;;;;19.00;9.02;;;;;;;;;;5052843;28;20074;-79
2022/04/23 05:16:27;;;;;;;20.33;8.90;;;;;;;;;;5054324;28;20021;-79
2022/04/23 05:18:53;;;;;;;17.25;8.73;;;;;;;;;;5052725;28;20032;-79
2022/04/23 05:21:18;;;;;;;16.23;8.68;;;;;;;;;;5052749;28;20033;-78
2022/04/23 05:23:44;;;;;;;17.70;8.10;;;;;;;;;;5052813;28;20112;-78
2022/04/23 05:26:09;;;;;;;13.07;7.22;;;;;;;;;;5053914;28;20059;-79
2022/04/23 05:28:35;;;;;;;19.58;7.90;;;;;;;;;;5037458;28;20025;-78
2022/04/23 05:31:01;;;;;;;16.83;7.30;;;;;;;;;;5057683;28;20446;-79
2022/04/23 05:33:27;;;;;;;12.93;7.40;;;;;;;;;;5053968;28;20474;-78
2022/04/23 05:35:52;;;;;;;13.32;7.00;;;;;;;;;;5035964;28;20033;-78
2022/04/23 05:38:19;;;;;;;11.48;7.10;;;;;;;;;;5052741;28;20439;-79
2022/04/23 05:40:45;;;;;;;13.52;7.10;;;;;;;;;;5052327;28;20033;-79
2022/04/23 05:43:10;;;;;;;15.68;7.78;;;;;;;;;;5052534;28;20029;-78
2022/04/23 05:45:36;;;;;;;18.30;7.38;;;;;;;;;;5052589;28;20374;-79
2022/04/23 05:48:02;;;;;;;18.48;7.97;;;;;;;;;;5052725;28;20147;-78
2022/04/23 05:50:27;;;;;;;17.35;8.98;;;;;;;;;;5039457;28;20029;-78
2022/04/23 05:52:53;;;;;;;20.30;9.68;;;;;;;;;;5053715;28;20424;-79
2022/04/23 05:55:18;;;;;;;14.80;8.15;;;;;;;;;;5052228;28;20029;-79
2022/04/23 05:57:44;;;;;;;15.27;8.63;;;;;;;;;;5052527;28;20025;-79
2022/04/23 06:00:10;;;;;;;11.80;6.47;;;;;;;;;;5054970;28;20037;-79
2022/04/23 06:02:36;;;;;;;14.40;6.20;;;;;;;;;;5057666;28;20036;-79
2022/04/23 06:05:02;;;;;;;10.43;5.93;;;;;;;;;;5016028;28;20106;-79
2022/04/23 06:07:27;;;;;;;14.00;6.28;;;;;;;;;;5023853;28;20036;-79
2022/04/23 06:09:53;;;;;;;13.13;6.68;;;;;;;;;;5049299;28;20029;-79
2022/04/23 06:12:18;;;;;;;11.32;6.45;;;;;;;;;;5023345;28;20021;-79
2022/04/23 06:14:46;;;;;;;11.77;5.50;;;;;;;;;;5039562;28;20021;-80
2022/04/23 06:17:12;;;;;;;14.88;5.63;;;;;;;;;;5057312;28;20635;-80
2022/04/23 06:19:39;;;;;;;10.98;5.82;;;;;;;;;;5039305;28;20033;-80
2022/04/23 06:22:04;;;;;;;12.18;4.70;;;;;;;;;;5039381;28;20051;-79
2022/04/23 06:24:30;;;;;;;7.10;3.97;;;;;;;;;;5056967;28;20442;-79
2022/04/23 06:26:56;;;;;;;9.50;4.30;;;;;;;;;;5057031;28;20063;-80
2022/04/23 06:29:21;;;;;;;10.30;4.82;;;;;;;;;;5067382;28;20025;-79
2022/04/23 06:31:47;;;;;;;9.30;4.03;;;;;;;;;;5061476;28;20064;-79
2022/04/23 06:34:12;;;;;;;8.35;4.30;;;;;;;;;;5039190;28;20446;-79
2022/04/23 06:36:38;;;;;;;11.18;4.90;;;;;;;;;;5039403;28;20041;-80
2022/04/23 06:39:04;;;;;;;11.13;4.80;;;;;;;;;;5038949;28;20036;-80
2022/04/23 06:41:30;;;;;;;14.07;6.05;;;;;;;;;;5038959;28;20028;-80
2022/04/23 06:43:55;;;;;;;17.52;6.35;;;;;;;;;;5057009;28;20036;-79
2022/04/23 06:46:24;;;;;;;15.80;7.32;;;;;;;;;;5057128;28;20029;-80
2022/04/23 06:48:50;;;;;;;12.48;6.25;;;;;;;;;;5039532;28;20043;-80
2022/04/23 06:51:16;;;;;;;12.70;5.90;;;;;;;;;;5049578;28;20028;-80
2022/04/23 06:53:41;;;;;;;14.88;6.70;;;;;;;;;;5022156;28;20033;-80
2022/04/23 06:56:07;;;;;;;14.48;6.70;;;;;;;;;;5056541;28;20076;-80
2022/04/23 06:58:32;;;;;;;15.73;6.47;;;;;;;;;;5038695;28;20366;-80
2022/04/23 07:00:58;;;;;;;17.92;7.75;;;;;;;;;;5038594;28;20025;-80
2022/04/23 07:03:24;;;;;;;15.65;7.30;;;;;;;;;;5006382;28;20040;-80
2022/04/23 07:05:50;;;;;;;14.68;6.47;;;;;;;;;;5056216;28;20104;-82
2022/04/23 07:08:15;;;;;;;14.77;7.32;;;;;;;;;;5056109;28;20029;-79
2022/04/23 07:10:41;;;;;;;12.18;6.80;;;;;;;;;;5044257;28;20024;-80
2022/04/23 07:13:07;;;;;;;18.58;7.15;;;;;;;;;;5059617;28;20033;-81
2022/04/23 07:15:33;;;;;;;15.23;7.60;;;;;;;;;;5038498;28;20029;-82
2022/04/23 07:17:58;;;;;;;14.93;7.32;;;;;;;;;;5038267;28;20025;-81
2022/04/23 07:20:24;;;;;;;14.55;6.40;;;;;;;;;;5038402;28;20033;-78
2022/04/23 07:25:35;;;;;;;12.07;6.13;;;;;;;;;;5055934;28;20082;-79
2022/04/23 07:28:00;;;;;;;11.45;5.53;;;;;;;;;;5021758;28;20442;-79
2022/04/23 07:30:26;;;;;;;14.15;5.43;;;;;;;;;;5021693;28;20163;-80
2022/04/23 07:32:55;;;;;;;14.05;5.72;;;;;;;;;;5029591;28;20029;-79
2022/04/23 07:38:19;;;;;;;14.23;5.40;;;;;;;;;;5040806;28;20029;-79
2022/04/23 07:40:45;;;;;;;10.75;4.93;;;;;;;;;;5038057;28;20434;-80
2022/04/23 07:43:12;;;;;;;10.18;5.30;;;;;;;;;;5037619;28;20041;-79
2022/04/23 07:45:41;;;;;;;11.50;5.60;;;;;;;;;;5021593;28;20029;-80
2022/04/23 07:48:09;;;;;;;10.02;4.68;;;;;;;;;;5037752;28;20529;-79
2022/04/23 07:50:36;;;;;;;21.00;12.20;;;;;;;;;;5038756;28;20039;-82
2022/04/23 07:53:01;;;;;;;20.10;8.57;;;;;;;;;;5033322;28;20051;-81
2022/04/23 07:55:29;;;;;;;9.57;5.50;;;;;;;;;;5039049;28;20103;-83
2022/04/23 07:57:57;;;;;;;15.00;5.60;;;;;;;;;;5005617;28;20043;-83
2022/04/23 08:00:22;;;;;;;10.10;4.68;;;;;;;;;;5021450;28;20447;-80
2022/04/23 08:02:48;;;;;;;6.80;3.63;;;;;;;;;;5055167;28;20120;-81
2022/04/23 08:05:13;;;;;;;7.80;4.30;;;;;;;;;;5037124;28;20378;-81
2022/04/23 08:07:39;;;;;;;14.05;4.13;;;;;;;;;;5055202;28;20111;-80
2022/04/23 08:10:06;;;;;;;10.23;3.95;;;;;;;;;;5020845;28;20111;-80
2022/04/23 08:12:35;;;;;;;6.10;3.33;;;;;;;;;;5055754;28;20035;-81
2022/04/23 08:15:01;;;;;;;8.83;3.53;;;;;;;;;;5047693;28;20516;-82
2022/04/23 08:17:26;;;;;;;4.72;2.50;;;;;;;;;;5020929;28;20080;-82
2022/04/23 08:19:52;;;;;;;5.03;2.78;;;;;;;;;;5054940;28;20035;-82
2022/04/23 08:22:18;;;;;;;8.10;3.30;;;;;;;;;;5037537;28;20102;-83
2022/04/23 08:24:43;;;;;;;7.35;3.25;;;;;;;;;;5037214;28;20488;-82
2022/04/23 08:27:09;;;;;;;5.38;2.30;;;;;;;;;;5020408;28;20040;-83
2022/04/23 08:32:18;;;;;;;4.03;2.13;;;;;;;;;;5039691;28;20040;-82
2022/04/23 08:34:45;;;;;;;7.50;2.35;;;;;;;;;;5030363;28;20037;-83
2022/04/23 08:37:12;;;;;;;5.93;2.40;;;;;;;;;;5038771;28;20508;-82
2022/04/23 08:39:37;;;;;;;9.68;1.95;;;;;;;;;;5054657;28;20410;-83
2022/04/23 08:42:04;;;;;;;3.50;2.20;;;;;;;;;;5036787;28;20043;-82
2022/04/23 08:44:29;;;;;;;8.38;5.07;;;;;;;;;;5020928;28;20029;-83
2022/04/23 08:46:55;;;;;;;5.13;1.77;;;;;;;;;;5036720;28;20033;-81
2022/04/23 08:49:20;;;;;;;3.90;1.73;;;;;;;;;;5036497;28;20029;-82
2022/04/23 08:51:57;;;;;;;5.05;1.50;;;;;;;;;;5036667;28;20064;-82
2022/04/23 08:54:23;;;;;;;5.00;2.03;;;;;;;;;;5022861;28;20029;-82
2022/04/23 08:56:49;;;;;;;3.20;1.80;;;;;;;;;;5041688;28;20055;-83
2022/04/23 08:59:15;;;;;;;2.08;1.45;;;;;;;;;;5020143;28;20040;-81
2022/04/23 09:01:41;;;;;;;6.72;1.90;;;;;;;;;;5054157;28;20119;-82
2022/04/23 09:04:07;;;;;;;8.40;1.98;;;;;;;;;;5019734;28;20139;-84
2022/04/23 09:06:34;;;;;;;4.55;1.38;;;;;;;;;;5036695;28;20183;-83
2022/04/23 09:09:07;;;;;;;3.75;1.20;;;;;;;;;;5036428;28;20029;-82
2022/04/23 09:11:35;;;;;;;4.57;1.63;;;;;;;;;;5020028;28;20037;-82
2022/04/23 09:14:06;;;;;;;5.63;1.58;;;;;;;;;;5036536;28;20029;-82
2022/04/23 09:25:35;;;;;;;4.93;1.40;;;;;;;;;;5007128;28;20438;-83
2022/04/23 09:28:16;;;;;;;6.45;2.38;;;;;;;;;;5019975;28;20351;-82
2022/04/23 09:30:42;;;;;;;3.90;1.50;;;;;;;;;;5053981;28;20037;-83
2022/04/23 09:33:07;;;;;;;2.47;1.30;;;;;;;;;;5036264;28;20033;-85
2022/04/23 09:35:34;;;;;;;15.75;5.60;;;;;;;;;;5042314;28;20406;-83
2022/04/23 09:38:17;;;;;;;3.88;1.40;;;;;;;;;;5063761;28;20112;-83
2022/04/23 09:40:43;;;;;;;30.02;20.60;;;;;;;;;;5040449;28;20106;-86
2022/04/23 09:43:11;;;;;;;6.90;3.80;;;;;;;;;;5007073;28;20446;-84
2022/04/23 09:45:43;;;;;;;10.77;6.63;;;;;;;;;;5024678;28;20032;-82
2022/04/23 09:48:11;;;;;;;15.77;11.88;;;;;;;;;;5040976;28;20025;-82
2022/04/23 09:50:41;;;;;;;5.57;4.10;;;;;;;;;;5057738;28;20024;-82
2022/04/23 09:53:10;;;;;;;9.85;2.75;;;;;;;;;;5023686;28;20031;-81
2022/04/23 09:55:36;;;;;;;4.68;2.53;;;;;;;;;;5059018;28;20031;-82
2022/04/23 09:58:05;;;;;;;9.43;2.10;;;;;;;;;;5013973;28;20462;-82
2022/04/23 10:00:31;;;;;;;5.85;1.80;;;;;;;;;;5040199;28;20024;-83
2022/04/23 10:02:57;;;;;;;3.70;1.60;;;;;;;;;;5023014;28;20037;-81
2022/04/23 10:05:23;;;;;;;5.95;2.00;;;;;;;;;;5033279;28;20053;-85
2022/04/23 10:07:50;;;;;;;6.45;1.73;;;;;;;;;;5039639;28;20595;-81
2022/04/23 10:10:16;;;;;;;3.03;1.60;;;;;;;;;;5023415;28;20366;-82
2022/04/23 10:12:41;;;;;;;6.53;1.02;;;;;;;;;;5023233;28;20443;-84
2022/04/23 10:15:07;;;;;;;4.22;0.95;;;;;;;;;;5039569;28;20033;-84
2022/04/23 10:17:33;;;;;;;6.82;2.22;;;;;;;;;;5044917;28;20016;-81
2022/04/23 10:19:59;;;;;;;5.13;1.30;;;;;;;;;;5056108;28;20442;-81
2022/04/23 10:22:28;;;;;;;3.55;1.70;;;;;;;;;;5039909;28;20041;-82
2022/04/23 10:25:22;;;;;;;5.50;1.77;;;;;;;;;;5057175;28;20469;-81
2022/04/23 10:27:48;;;;;;;6.35;2.40;;;;;;;;;;5057013;28;20033;-81
2022/04/23 10:30:13;;;;;;;5.70;1.85;;;;;;;;;;5056084;28;20120;-82
2022/04/23 10:32:40;;;;;;;2.83;1.50;;;;;;;;;;5039135;28;20033;-81
2022/04/23 10:35:17;;;;;;;2.78;1.48;;;;;;;;;;5039537;28;20533;-81
2022/04/23 10:37:43;;;;;;;2.92;1.10;;;;;;;;;;5061675;28;20021;-82
2022/04/23 10:40:19;;;;;;;3.28;1.40;;;;;;;;;;5043068;28;20033;-82
2022/04/23 10:43:03;;;;;;;3.95;1.20;;;;;;;;;;5039286;28;20040;-80
2022/04/23 10:45:35;;;;;;;2.47;1.20;;;;;;;;;;5056444;28;20028;-81
2022/04/23 10:48:21;;;;;;;2.53;1.17;;;;;;;;;;5038419;28;20025;-83
2022/04/23 10:51:16;;;;;;;2.88;1.00;;;;;;;;;;5055641;28;20029;-82
2022/04/23 10:53:41;;;;;;;2.38;1.30;;;;;;;;;;5055116;28;20052;-83
2022/04/23 10:56:11;;;;;;;2.13;0.93;;;;;;;;;;5056729;28;20362;-82
2022/04/23 10:58:41;;;;;;;2.30;1.33;;;;;;;;;;5046140;28;20055;-85
2022/04/23 11:01:20;;;;;;;1.50;0.90;;;;;;;;;;5039640;28;20032;-82
2022/04/23 11:04:08;;;;;;;7.57;3.55;;;;;;;;;;5055043;28;20074;-80
2022/04/23 11:12:29;;;;;;;2.80;1.80;;;;;;;;;;5038431;28;20036;-82
2022/04/23 11:14:57;;;;;;;10.05;3.20;;;;;;;;;;5022680;28;20036;-81
2022/04/23 11:17:30;;;;;;;2.97;1.77;;;;;;;;;;5044064;28;20025;-81
2022/04/23 11:19:55;;;;;;;7.38;3.20;;;;;;;;;;5065360;28;20025;-80
2022/04/23 11:22:21;;;;;;;2.97;1.95;;;;;;;;;;5038305;28;20082;-82
2022/04/23 11:24:51;;;;;;;4.72;2.10;;;;;;;;;;5021894;28;20485;-81
2022/04/23 11:27:32;;;;;;;6.15;2.45;;;;;;;;;;5021992;28;20021;-81
2022/04/23 11:29:58;;;;;;;7.55;2.28;;;;;;;;;;5038303;28;20128;-81
2022/04/23 11:32:30;;;;;;;3.72;2.40;;;;;;;;;;5055808;28;20115;-82
2022/04/23 11:34:59;;;;;;;4.38;2.10;;;;;;;;;;5021670;28;20374;-81
2022/04/23 11:37:35;;;;;;;3.35;2.10;;;;;;;;;;5021862;28;20476;-82
2022/04/23 11:40:07;;;;;;;7.95;2.22;;;;;;;;;;5010807;28;20028;-82
2022/04/23 11:42:45;;;;;;;5.38;1.95;;;;;;;;;;5021673;28;20123;-81
2022/04/23 11:45:13;;;;;;;6.80;1.98;;;;;;;;;;5005635;28;20127;-82
2022/04/23 11:47:39;;;;;;;8.95;2.30;;;;;;;;;;5038076;28;20029;-82
2022/04/23 11:50:14;;;;;;;5.93;2.13;;;;;;;;;;5005205;28;20078;-81
2022/04/23 11:52:40;;;;;;;6.13;2.03;;;;;;;;;;5037704;28;20119;-83
2022/04/23 11:55:06;;;;;;;7.10;1.88;;;;;;;;;;5037812;28;20125;-82
2022/04/23 11:57:31;;;;;;;5.20;2.10;;;;;;;;;;5054834;28;20346;-80
2022/04/23 12:00:01;;;;;;;4.65;1.95;;;;;;;;;;5043081;28;20065;-81
2022/04/23 12:02:29;;;;;;;8.03;2.50;;;;;;;;;;5025771;28;20029;-82
2022/04/23 12:04:57;;;;;;;7.05;2.05;;;;;;;;;;5027366;28;20284;-82
2022/04/23 12:07:23;;;;;;;3.92;1.63;;;;;;;;;;5054087;28;20112;-83
2022/04/23 12:09:51;;;;;;;5.40;1.98;;;;;;;;;;5037403;28;20545;-81
2022/04/23 12:12:19;;;;;;;4.05;2.00;;;;;;;;;;5053690;28;20426;-82
2022/04/23 12:14:54;;;;;;;7.63;1.77;;;;;;;;;;5055134;28;20036;-81
2022/04/23 12:17:23;;;;;;;2.92;1.52;;;;;;;;;;5053896;28;20021;-80
2022/04/23 12:19:51;;;;;;;4.23;1.70;;;;;;;;;;5056398;28;20028;-82
2022/04/23 12:22:24;;;;;;;7.55;2.10;;;;;;;;;;5061591;28;20036;-83
2022/04/23 12:24:49;;;;;;;1.63;1.30;;;;;;;;;;5037217;28;20083;-81
2022/04/23 12:27:17;;;;;;;7.57;1.80;;;;;;;;;;5037047;28;20020;-81
2022/04/23 12:40:56;;;;;;;5.93;1.67;;;;;;;;;;5061223;28;20032;-82
2022/04/23 12:43:27;;;;;;;2.50;1.40;;;;;;;;;;5044891;28;20036;-82
2022/04/23 12:46:09;;;;;;;3.38;1.35;;;;;;;;;;5037390;28;20021;-82
2022/04/23 12:48:59;;;;;;;4.22;1.42;;;;;;;;;;5020841;28;20067;-83
2022/04/23 12:51:25;;;;;;;3.83;1.33;;;;;;;;;;5053261;28;20025;-82
2022/04/23 12:53:50;;;;;;;3.97;1.27;;;;;;;;;;5036663;28;20055;-81
2022/04/23 12:56:18;;;;;;;4.70;2.03;;;;;;;;;;5036177;28;20113;-82
2022/04/23 12:58:44;;;;;;;2.53;1.40;;;;;;;;;;5053282;28;20120;-82
2022/04/23 13:01:09;;;;;;;7.65;1.73;;;;;;;;;;5057423;28;20071;-82
2022/04/23 13:03:42;;;;;;;2.47;1.50;;;;;;;;;;5061283;28;20029;-82
2022/04/23 13:08:56;;;;;;;7.82;2.20;;;;;;;;;;5053160;28;20028;-83
2022/04/23 13:11:25;;;;;;;6.72;2.17;;;;;;;;;;5052418;28;20044;-83
2022/04/23 13:13:55;;;;;;;5.82;2.08;;;;;;;;;;5036837;28;20044;-81
2022/04/23 13:16:22;;;;;;;3.85;1.00;;;;;;;;;;5054191;28;20028;-82
2022/04/23 13:18:47;;;;;;;9.23;1.25;;;;;;;;;;5053195;28;20033;-80
2022/04/23 13:21:14;;;;;;;3.90;1.33;;;;;;;;;;5054475;28;20091;-84
2022/04/23 13:23:39;;;;;;;4.03;1.88;;;;;;;;;;5061562;28;20064;-79
2022/04/23 13:26:05;;;;;;;8.65;2.00;;;;;;;;;;5052720;28;20021;-82
2022/04/23 13:28:30;;;;;;;7.25;2.42;;;;;;;;;;5036195;28;20037;-80
2022/04/23 13:30:56;;;;;;;6.13;1.77;;;;;;;;;;5019901;28;20060;-80
2022/04/23 13:33:22;;;;;;;5.07;1.85;;;;;;;;;;5036230;28;20029;-82
2022/04/23 13:35:47;;;;;;;7.18;2.92;;;;;;;;;;5036261;28;20036;-84
2022/04/23 13:38:16;;;;;;;5.68;2.65;;;;;;;;;;5053928;28;20025;-82
2022/04/23 13:40:43;;;;;;;7.57;2.87;;;;;;;;;;5052634;28;20086;-82
2022/04/23 13:43:08;;;;;;;9.88;2.78;;;;;;;;;;5041194;28;20055;-81
2022/04/23 13:45:34;;;;;;;10.20;2.97;;;;;;;;;;5036808;28;20029;-80
2022/04/23 13:48:00;;;;;;;15.57;2.65;;;;;;;;;;5052536;28;20031;-82
2022/04/23 13:50:26;;;;;;;5.10;2.17;;;;;;;;;;5036075;28;20103;-85
2022/04/23 13:52:52;;;;;;;5.35;2.20;;;;;;;;;;5036067;28;20021;-82
2022/04/23 13:55:17;;;;;;;9.90;2.35;;;;;;;;;;5053968;28;20407;-83
2022/04/23 13:57:43;;;;;;;6.57;2.28;;;;;;;;;;5036056;28;20029;-81
2022/04/23 14:00:09;;;;;;;3.92;2.03;;;;;;;;;;5052533;28;20029;-80
2022/04/23 14:10:46;;;;;;;6.60;2.30;;;;;;;;;;5053707;28;20031;-81
2022/04/23 14:13:12;;;;;;;4.10;2.17;;;;;;;;;;5035819;28;20033;-81
2022/04/23 14:15:37;;;;;;;4.05;2.53;;;;;;;;;;5035942;28;20025;-82
2022/04/23 14:18:03;;;;;;;5.32;2.20;;;;;;;;;;5053551;28;20029;-83
2022/04/23 14:20:29;;;;;;;4.22;2.33;;;;;;;;;;5036182;28;20031;-83
2022/04/23 14:22:54;;;;;;;3.17;2.08;;;;;;;;;;5039190;28;20029;-81
2022/04/23 14:25:20;;;;;;;5.93;2.05;;;;;;;;;;5051001;28;20029;-81
2022/04/23 14:27:47;;;;;;;3.92;2.08;;;;;;;;;;5057531;28;20024;-83
2022/04/23 14:30:13;;;;;;;2.88;2.05;;;;;;;;;;5039385;28;20028;-82
2022/04/23 14:32:38;;;;;;;4.30;2.10;;;;;;;;;;5057105;28;20362;-81
2022/04/23 14:35:04;;;;;;;4.18;2.10;;;;;;;;;;5023026;28;20029;-80
2022/04/23 14:37:30;;;;;;;5.53;2.40;;;;;;;;;;5022452;28;20442;-82
2022/04/23 14:39:55;;;;;;;5.10;2.20;;;;;;;;;;5039174;28;20171;-81
2022/04/23 14:42:22;;;;;;;7.90;2.53;;;;;;;;;;5056779;28;20033;-80
2022/04/23 14:44:48;;;;;;;7.38;2.30;;;;;;;;;;5029402;28;20111;-81
2022/04/23 14:47:13;;;;;;;5.70;2.22;;;;;;;;;;5045759;28;20484;-83
2022/04/23 14:49:39;;;;;;;8.13;2.70;;;;;;;;;;5039078;28;20029;-80
2022/04/23 14:54:49;;;;;;;3.45;2.33;;;;;;;;;;5041612;28;20409;-82
2022/04/23 14:57:14;;;;;;;5.25;2.63;;;;;;;;;;5022693;28;20025;-81
2022/04/23 14:59:41;;;;;;;5.72;2.65;;;;;;;;;;5022228;28;20033;-80
2022/04/23 15:02:06;;;;;;;5.00;2.78;;;;;;;;;;5022698;28;20037;-79
2022/04/23 15:04:32;;;;;;;4.28;2.67;;;;;;;;;;5044285;28;20828;-82
2022/04/23 15:06:58;;;;;;;5.25;2.65;;;;;;;;;;5065603;28;20025;-82
2022/04/23 15:09:24;;;;;;;3.72;2.50;;;;;;;;;;5038707;28;20033;-81
2022/04/23 15:11:49;;;;;;;4.65;2.78;;;;;;;;;;5055134;28;20040;-81
2022/04/23 15:14:15;;;;;;;9.13;2.70;;;;;;;;;;5055150;28;20036;-83
2022/04/23 15:16:40;;;;;;;4.38;2.60;;;;;;;;;;5056691;28;20485;-83
2022/04/23 15:19:06;;;;;;;7.28;2.65;;;;;;;;;;5038500;28;20029;-81
2022/04/23 15:21:31;;;;;;;4.22;2.55;;;;;;;;;;5055895;28;20432;-84
2022/04/23 15:23:57;;;;;;;4.80;2.65;;;;;;;;;;5055033;28;20366;-81
2022/04/23 15:26:22;;;;;;;4.72;2.33;;;;;;;;;;5063373;28;20013;-80